createdAt,value
2023-04-18T00:01:50.614Z,13.13
2023-04-18T00:03:53.714Z,12.40
2023-04-18T00:05:58.009Z,13.77
2023-04-18T00:08:00.787Z,12.65
2023-04-18T00:10:03.773Z,13.02
2023-04-18T00:12:08.574Z,13.10
2023-04-18T00:14:11.915Z,13.55
2023-04-18T00:16:15.539Z,14.40
2023-04-18T00:18:18.378Z,16.17
2023-04-18T00:20:21.453Z,17.15
2023-04-18T00:22:24.244Z,16.33
2023-04-18T00:24:27.082Z,16.52
2023-04-18T00:26:29.905Z,16.42
2023-04-18T00:28:35.142Z,15.88
2023-04-18T00:30:37.976Z,16.50
2023-04-18T00:32:40.930Z,16.55
2023-04-18T00:34:43.842Z,15.98
2023-04-18T00:36:48.083Z,16.13
2023-04-18T00:38:50.963Z,15.25
2023-04-18T00:40:53.773Z,16.02
2023-04-18T00:42:57.047Z,15.98
2023-04-18T00:45:01.309Z,14.82
2023-04-18T00:47:04.188Z,15.60
2023-04-18T00:49:07.629Z,15.68
2023-04-18T00:51:11.061Z,14.32
2023-04-18T00:53:14.614Z,16.30
2023-04-18T00:55:18.264Z,15.48
2023-04-18T00:57:22.155Z,14.43
2023-04-18T00:59:25.063Z,15.68
2023-04-18T01:01:29.353Z,14.73
2023-04-18T01:03:33.043Z,13.93
2023-04-18T01:05:36.235Z,15.57
2023-04-18T01:07:41.985Z,14.55
2023-04-18T01:09:45.596Z,15.43
2023-04-18T01:11:48.898Z,15.75
2023-04-18T01:14:02.496Z,14.85
2023-04-18T01:16:05.983Z,14.48
2023-04-18T01:18:10.692Z,15.02
2023-04-18T01:20:16.808Z,15.70
2023-04-18T01:22:20.994Z,14.23
2023-04-18T01:24:26.789Z,15.32
2023-04-18T01:26:30.488Z,15.35
2023-04-18T01:28:37.717Z,14.88
2023-04-18T01:30:40.834Z,15.63
2023-04-18T01:32:45.442Z,15.45
2023-04-18T01:34:48.436Z,15.52
2023-04-18T01:36:51.290Z,15.27
2023-04-18T01:38:54.344Z,14.70
2023-04-18T01:40:59.724Z,15.82
2023-04-18T01:43:02.650Z,15.48
2023-04-18T01:45:07.409Z,16.08
2023-04-18T01:47:10.195Z,15.45
2023-04-18T01:49:13.099Z,15.93
2023-04-18T01:51:17.974Z,14.50
2023-04-18T01:53:20.863Z,14.60
2023-04-18T01:55:23.739Z,16.20
2023-04-18T01:57:27.986Z,14.93
2023-04-18T01:59:30.829Z,16.40
2023-04-18T02:01:33.676Z,14.75
2023-04-18T02:03:36.749Z,14.88
2023-04-18T02:05:39.706Z,15.30
2023-04-18T02:07:45.466Z,15.45
2023-04-18T02:09:48.256Z,16.08
2023-04-18T02:11:51.090Z,14.45
2023-04-18T02:13:55.337Z,14.27
2023-04-18T02:15:58.154Z,14.98
2023-04-18T02:18:01.181Z,15.48
2023-04-18T02:20:04.109Z,14.95
2023-04-18T02:22:06.868Z,14.82
2023-04-18T02:24:09.638Z,16.05
2023-04-18T02:26:12.428Z,16.33
2023-04-18T02:28:15.229Z,15.95
2023-04-18T02:30:19.559Z,15.80
2023-04-18T02:32:22.336Z,15.82
2023-04-18T02:34:25.209Z,15.70
2023-04-18T02:36:28.326Z,15.82
2023-04-18T02:38:31.820Z,15.50
2023-04-18T02:40:34.617Z,15.68
2023-04-18T02:42:37.454Z,15.07
2023-04-18T02:44:40.315Z,15.32
2023-04-18T02:46:44.515Z,15.20
2023-04-18T02:48:49.348Z,15.07
2023-04-18T02:50:53.977Z,15.18
2023-04-18T02:52:56.862Z,15.25
2023-04-18T02:55:09.596Z,16.17
2023-04-18T02:57:16.206Z,16.00
2023-04-18T02:59:43.038Z,16.05
2023-04-18T03:01:47.197Z,15.77
2023-04-18T03:03:53.588Z,15.57
2023-04-18T03:06:20.913Z,15.55
2023-04-18T03:08:24.289Z,16.15
2023-04-18T03:10:27.149Z,16.08
2023-04-18T03:12:29.968Z,16.42
2023-04-18T03:14:32.942Z,15.40
2023-04-18T03:16:35.871Z,15.27
2023-04-18T03:18:41.408Z,16.02
2023-04-18T03:20:44.287Z,14.63
2023-04-18T03:22:47.316Z,15.07
2023-04-18T03:24:53.748Z,16.10
2023-04-18T03:27:00.518Z,14.88
2023-04-18T03:29:03.832Z,15.68
2023-04-18T03:31:07.157Z,15.32
2023-04-18T03:33:14.381Z,15.55
2023-04-18T03:35:18.664Z,15.85
2023-04-18T03:37:21.547Z,16.30
2023-04-18T03:39:29.098Z,15.60
2023-04-18T03:41:32.575Z,15.82
2023-04-18T03:43:35.561Z,15.55
2023-04-18T03:45:38.558Z,16.20
2023-04-18T03:47:41.475Z,16.13
2023-04-18T03:49:44.299Z,16.42
2023-04-18T03:51:49.021Z,15.85
2023-04-18T03:53:51.985Z,15.07
2023-04-18T03:55:55.067Z,15.30
2023-04-18T03:58:01.765Z,15.38
2023-04-18T04:00:08.126Z,15.65
2023-04-18T04:02:18.423Z,14.63
2023-04-18T04:04:21.408Z,16.15
2023-04-18T04:06:24.490Z,15.68
2023-04-18T04:08:29.664Z,16.00
2023-04-18T04:10:33.816Z,16.25
2023-04-18T04:12:36.853Z,16.00
2023-04-18T04:14:39.880Z,14.18
2023-04-18T04:16:43.247Z,15.82
2023-04-18T04:18:48.592Z,15.80
2023-04-18T04:20:51.338Z,16.20
2023-04-18T04:23:07.386Z,15.80
2023-04-18T04:25:13.804Z,15.65
2023-04-18T04:27:20.524Z,15.13
2023-04-18T04:29:24.607Z,16.52
2023-04-18T04:31:28.768Z,15.75
2023-04-18T04:33:33.297Z,15.23
2023-04-18T04:35:39.364Z,15.27
2023-04-18T04:37:44.155Z,15.82
2023-04-18T04:40:00.614Z,15.13
2023-04-18T04:42:05.387Z,15.85
2023-04-18T04:44:17.573Z,15.88
2023-04-18T04:46:20.852Z,15.48
2023-04-18T04:48:25.838Z,15.50
2023-04-18T04:50:29.787Z,16.00
2023-04-18T04:52:33.089Z,15.30
2023-04-18T04:54:36.379Z,16.80
2023-04-18T04:56:41.916Z,15.32
2023-04-18T04:58:47.185Z,15.90
2023-04-18T05:00:59.716Z,16.25
2023-04-18T05:03:02.749Z,15.30
2023-04-18T05:05:06.544Z,14.73
2023-04-18T05:07:09.322Z,15.35
2023-04-18T05:09:12.052Z,15.88
2023-04-18T05:11:14.809Z,16.50
2023-04-18T05:13:17.585Z,16.83
2023-04-18T05:15:21.794Z,15.75
2023-04-18T05:17:24.669Z,15.30
2023-04-18T05:19:27.450Z,14.82
2023-04-18T05:21:31.264Z,16.23
2023-04-18T05:23:36.820Z,15.85
2023-04-18T05:25:39.651Z,15.38
2023-04-18T05:27:42.438Z,15.95
2023-04-18T05:29:46.551Z,16.40
2023-04-18T05:31:50.693Z,16.23
2023-04-18T05:33:53.408Z,16.42
2023-04-18T05:35:56.524Z,15.20
2023-04-18T05:37:59.467Z,16.05
2023-04-18T05:40:02.376Z,15.70
2023-04-18T05:42:05.294Z,16.27
2023-04-18T05:44:08.058Z,17.08
2023-04-18T05:46:13.267Z,16.25
2023-04-18T05:48:17.378Z,15.52
2023-04-18T05:50:20.640Z,15.15
2023-04-18T05:52:23.393Z,16.25
2023-04-18T05:54:26.122Z,16.85
2023-04-18T05:56:28.880Z,15.95
2023-04-18T05:58:31.698Z,16.42
2023-04-18T06:00:34.793Z,15.80
2023-04-18T06:02:37.703Z,15.75
2023-04-18T06:04:42.898Z,15.60
2023-04-18T06:06:46.096Z,16.30
2023-04-18T06:08:48.838Z,16.40
2023-04-18T06:10:51.557Z,16.25
2023-04-18T06:12:54.294Z,16.02
2023-04-18T06:14:57.064Z,15.38
2023-04-18T06:16:59.925Z,15.40
2023-04-18T06:19:03.316Z,16.48
2023-04-18T06:21:07.599Z,15.40
2023-04-18T06:23:10.315Z,15.98
2023-04-18T06:25:13.135Z,16.50
2023-04-18T06:27:30.091Z,15.68
2023-04-18T06:29:33.290Z,16.42
2023-04-18T06:31:36.167Z,15.35
2023-04-18T06:33:38.964Z,16.02
2023-04-18T06:35:42.025Z,15.70
2023-04-18T06:37:46.767Z,16.35
2023-04-18T06:39:49.562Z,15.35
2023-04-18T06:41:52.516Z,15.93
2023-04-18T06:44:04.657Z,15.73
2023-04-18T06:46:07.797Z,16.83
2023-04-18T06:48:10.824Z,16.13
2023-04-18T06:50:13.684Z,15.82
2023-04-18T06:52:16.428Z,16.35
2023-04-18T06:54:20.543Z,16.42
2023-04-18T06:56:23.566Z,15.98
2023-04-18T06:58:26.299Z,16.20
2023-04-18T07:00:29.127Z,16.33
2023-04-18T07:02:32.028Z,16.35
2023-04-18T07:04:35.068Z,16.45
2023-04-18T07:06:38.530Z,15.45
2023-04-18T07:08:41.896Z,16.95
2023-04-18T07:10:45.942Z,16.10
2023-04-18T07:12:48.716Z,16.52
2023-04-18T07:14:51.919Z,15.15
2023-04-18T07:16:54.792Z,16.17
2023-04-18T07:18:57.595Z,16.10
2023-04-18T07:21:00.472Z,15.95
2023-04-18T07:23:03.221Z,15.70
2023-04-18T07:25:06.628Z,15.25
2023-04-18T07:27:10.745Z,15.82
2023-04-18T07:29:13.503Z,16.15
2023-04-18T07:31:16.552Z,17.10
2023-04-18T07:33:19.576Z,16.77
2023-04-18T07:35:22.376Z,16.83
2023-04-18T07:37:25.194Z,16.00
2023-04-18T07:39:28.269Z,15.98
2023-04-18T07:41:31.018Z,16.02
2023-04-18T07:43:35.350Z,15.63
2023-04-18T07:45:38.493Z,15.70
2023-04-18T07:47:41.367Z,16.02
2023-04-18T07:49:44.356Z,15.52
2023-04-18T07:51:47.122Z,16.10
2023-04-18T07:53:49.848Z,16.15
2023-04-18T07:55:54.320Z,14.27
2023-04-18T07:57:57.035Z,15.75
2023-04-18T08:00:01.088Z,15.63
2023-04-18T08:02:03.999Z,14.43
2023-04-18T08:04:07.014Z,15.45
2023-04-18T08:06:09.934Z,15.13
2023-04-18T08:08:13.313Z,14.35
2023-04-18T08:10:16.048Z,15.65
2023-04-18T08:12:18.704Z,14.40
2023-04-18T08:14:21.431Z,14.98
2023-04-18T08:16:25.565Z,15.75
2023-04-18T08:18:28.278Z,14.15
2023-04-18T08:20:31.038Z,14.95
2023-04-18T08:22:34.373Z,14.38
2023-04-18T08:24:37.760Z,14.35
2023-04-18T08:26:40.420Z,13.85
2023-04-18T08:28:44.802Z,14.68
2023-04-18T08:30:50.327Z,14.68
2023-04-18T08:32:54.429Z,15.13
2023-04-18T08:34:57.192Z,14.40
2023-04-18T08:36:59.891Z,13.85
2023-04-18T08:39:02.605Z,14.75
2023-04-18T08:41:05.360Z,14.02
2023-04-18T08:43:12.246Z,13.90
2023-04-18T08:45:15.269Z,13.75
2023-04-18T08:47:19.252Z,13.48
2023-04-18T08:49:24.117Z,13.75
2023-04-18T08:51:30.724Z,13.57
2023-04-18T08:53:35.241Z,12.82
2023-04-18T08:55:38.525Z,13.82
2023-04-18T08:57:41.338Z,13.57
2023-04-18T08:59:48.278Z,12.68
2023-04-18T09:01:56.533Z,13.73
2023-04-18T09:03:59.412Z,13.55
2023-04-18T09:06:12.383Z,13.02
2023-04-18T09:08:25.140Z,12.82
2023-04-18T09:10:29.870Z,13.20
2023-04-18T09:12:32.690Z,12.60
2023-04-18T09:14:37.545Z,13.40
2023-04-18T09:16:47.214Z,12.40
2023-04-18T09:19:12.640Z,12.75
2023-04-18T09:21:20.771Z,13.45
2023-04-18T09:23:26.042Z,13.85
2023-04-18T09:25:34.394Z,12.90
2023-04-18T09:27:37.498Z,13.80
2023-04-18T09:29:46.178Z,13.25
2023-04-18T09:31:59.901Z,43.58
2023-04-18T09:34:03.099Z,13.27
2023-04-18T09:36:18.454Z,13.30
2023-04-18T09:38:39.918Z,13.00
2023-04-18T09:40:42.649Z,13.48
2023-04-18T09:42:46.054Z,13.52
2023-04-18T09:45:05.470Z,13.50
2023-04-18T09:47:08.655Z,12.23
2023-04-18T09:49:12.053Z,12.68
2023-04-18T09:51:16.973Z,12.27
2023-04-18T09:53:21.229Z,13.75
2023-04-18T09:55:25.462Z,13.13
2023-04-18T09:57:30.442Z,13.00
2023-04-18T09:59:54.924Z,12.52
2023-04-18T10:02:00.562Z,12.65
2023-04-18T10:04:06.738Z,11.90
2023-04-18T10:06:12.149Z,11.65
2023-04-18T10:08:16.065Z,12.65
2023-04-18T10:10:19.351Z,13.43
2023-04-18T10:12:24.314Z,13.25
2023-04-18T10:14:28.483Z,12.40
2023-04-18T10:16:34.749Z,14.30
2023-04-18T10:18:38.390Z,12.02
2023-04-18T10:20:42.257Z,12.45
2023-04-18T10:22:45.114Z,11.57
2023-04-18T10:24:54.025Z,13.02
2023-04-18T10:26:57.849Z,12.27
2023-04-18T10:29:02.550Z,11.98
2023-04-18T10:31:05.726Z,11.55
2023-04-18T10:33:31.791Z,12.02
2023-04-18T10:35:36.406Z,11.25
2023-04-18T10:37:50.588Z,11.93
2023-04-18T10:39:58.713Z,12.50
2023-04-18T10:42:02.683Z,13.00
2023-04-18T10:44:23.716Z,12.60
2023-04-18T10:46:32.254Z,12.48
2023-04-18T10:48:39.017Z,11.88
2023-04-18T10:51:14.954Z,11.55
2023-04-18T10:53:17.821Z,11.38
2023-04-18T10:55:27.214Z,11.65
2023-04-18T10:57:39.086Z,12.13
2023-04-18T10:59:51.853Z,11.93
2023-04-18T11:01:57.301Z,10.85
2023-04-18T11:04:00.726Z,10.77
2023-04-18T11:06:03.931Z,11.48
2023-04-18T11:08:22.366Z,11.07
2023-04-18T11:10:26.386Z,11.07
2023-04-18T11:12:32.260Z,12.20
2023-04-18T11:14:41.298Z,11.77
2023-04-18T11:16:45.515Z,11.30
2023-04-18T11:18:48.274Z,10.27
2023-04-18T11:20:52.356Z,9.77
2023-04-18T11:22:57.207Z,9.33
2023-04-18T11:25:00.819Z,9.67
2023-04-18T11:27:05.280Z,10.13
2023-04-18T11:29:08.287Z,9.23
2023-04-18T11:31:10.995Z,10.23
2023-04-18T11:33:16.565Z,10.33
2023-04-18T11:35:19.456Z,9.90
2023-04-18T11:37:22.720Z,9.47
2023-04-18T11:39:25.690Z,9.63
2023-04-18T11:41:28.495Z,9.77
2023-04-18T11:43:31.229Z,10.40
2023-04-18T11:45:34.489Z,9.10
2023-04-18T11:47:37.205Z,9.30
2023-04-18T11:49:42.108Z,10.10
2023-04-18T11:51:46.299Z,9.20
2023-04-18T11:53:49.051Z,9.20
2023-04-18T11:55:55.895Z,8.50
2023-04-18T11:57:59.725Z,8.40
2023-04-18T12:00:02.817Z,8.47
2023-04-18T12:02:16.800Z,8.97
2023-04-18T12:04:20.546Z,8.47
2023-04-18T12:06:25.296Z,8.23
2023-04-18T12:08:28.137Z,7.97
2023-04-18T12:10:31.039Z,8.77
2023-04-18T12:12:34.127Z,8.13
2023-04-18T12:14:36.918Z,8.47
2023-04-18T12:16:39.676Z,8.77
2023-04-18T12:18:42.649Z,9.07
2023-04-18T12:20:50.586Z,13.80
2023-04-18T12:22:57.815Z,9.13
2023-04-18T12:25:10.234Z,8.57
2023-04-18T12:27:13.101Z,8.63
2023-04-18T12:29:15.902Z,8.40
2023-04-18T12:31:19.027Z,8.57
2023-04-18T12:33:21.840Z,9.00
2023-04-18T12:35:25.653Z,8.67
2023-04-18T12:37:28.411Z,8.30
2023-04-18T12:39:32.478Z,8.03
2023-04-18T12:41:35.260Z,8.00
2023-04-18T12:43:38.002Z,7.57
2023-04-18T12:45:40.719Z,7.67
2023-04-18T12:47:45.207Z,7.33
2023-04-18T12:49:47.905Z,7.50
2023-04-18T12:51:50.628Z,7.37
2023-04-18T12:53:53.505Z,6.57
2023-04-18T12:55:57.792Z,7.07
2023-04-18T12:58:00.816Z,6.63
2023-04-18T13:00:05.696Z,6.40
2023-04-18T13:02:08.532Z,5.90
2023-04-18T13:04:13.083Z,5.70
2023-04-18T13:06:16.468Z,6.20
2023-04-18T13:08:19.194Z,6.90
2023-04-18T13:10:24.609Z,6.80
2023-04-18T13:12:30.456Z,7.43
2023-04-18T13:14:33.206Z,6.53
2023-04-18T13:16:36.114Z,6.80
2023-04-18T13:18:38.874Z,6.07
2023-04-18T13:20:41.602Z,6.40
2023-04-18T13:22:44.848Z,6.80
2023-04-18T13:24:47.753Z,6.30
2023-04-18T13:26:50.467Z,6.17
2023-04-18T13:28:54.563Z,7.00
2023-04-18T13:30:57.301Z,6.70
2023-04-18T13:33:00.186Z,5.73
2023-04-18T13:35:03.604Z,6.20
2023-04-18T13:37:06.473Z,7.30
2023-04-18T13:39:09.201Z,6.23
2023-04-18T13:41:13.276Z,6.47
2023-04-18T13:43:16.509Z,6.50
2023-04-18T13:45:20.984Z,5.60
2023-04-18T13:47:23.829Z,5.57
2023-04-18T13:49:26.672Z,5.70
2023-04-18T13:51:29.417Z,5.77
2023-04-18T13:53:32.194Z,6.60
2023-04-18T13:55:36.813Z,6.20
2023-04-18T13:57:39.552Z,6.30
2023-04-18T13:59:42.408Z,6.10
2023-04-18T14:01:46.598Z,6.20
2023-04-18T14:03:49.547Z,6.53
2023-04-18T14:05:52.367Z,6.20
2023-04-18T14:08:01.864Z,6.13
2023-04-18T14:10:05.174Z,6.90
2023-04-18T14:12:08.205Z,6.50
2023-04-18T14:14:10.976Z,6.40
2023-04-18T14:16:14.871Z,5.80
2023-04-18T14:18:21.677Z,6.40
2023-04-18T14:20:26.545Z,6.47
2023-04-18T14:22:29.306Z,5.57
2023-04-18T14:24:32.031Z,6.53
2023-04-18T14:26:34.745Z,6.20
2023-04-18T14:28:37.587Z,5.73
2023-04-18T14:30:41.297Z,12.13
2023-04-18T14:32:44.035Z,7.37
2023-04-18T14:34:48.200Z,7.67
2023-04-18T14:36:51.078Z,8.30
2023-04-18T14:38:54.673Z,6.03
2023-04-18T14:40:58.788Z,5.97
2023-04-18T14:43:01.543Z,5.83
2023-04-18T14:45:05.158Z,11.53
2023-04-18T14:47:07.949Z,7.97
2023-04-18T14:49:10.759Z,10.27
2023-04-18T14:51:16.119Z,18.43
2023-04-18T14:53:18.878Z,5.40
2023-04-18T14:55:21.702Z,5.40
2023-04-18T14:57:25.184Z,5.40
2023-04-18T14:59:28.843Z,5.43
2023-04-18T15:01:31.627Z,4.60
2023-04-18T15:03:34.634Z,4.80
2023-04-18T15:05:42.662Z,4.57
2023-04-18T15:07:47.745Z,5.20
2023-04-18T15:09:51.660Z,5.20
2023-04-18T15:11:54.429Z,3.77
2023-04-18T15:13:57.914Z,4.07
2023-04-18T15:16:01.403Z,4.30
2023-04-18T15:18:04.643Z,5.80
2023-04-18T15:20:08.671Z,3.90
2023-04-18T15:22:11.521Z,5.50
2023-04-18T15:24:16.657Z,4.53
2023-04-18T15:26:19.581Z,5.30
2023-04-18T15:28:22.935Z,5.40
2023-04-18T15:30:25.993Z,4.90
2023-04-18T15:32:28.774Z,6.80
2023-04-18T15:34:31.605Z,6.37
2023-04-18T15:36:35.887Z,4.57
2023-04-18T15:38:39.878Z,9.17
2023-04-18T15:40:44.616Z,5.90
2023-04-18T15:42:49.319Z,5.27
2023-04-18T15:44:52.312Z,4.63
2023-04-18T15:46:55.501Z,4.90
2023-04-18T15:48:58.220Z,5.10
2023-04-18T15:51:01.451Z,5.20
2023-04-18T15:53:04.221Z,5.20
2023-04-18T15:55:09.100Z,5.10
2023-04-18T15:57:13.344Z,5.47
2023-04-18T15:59:16.032Z,5.83
2023-04-18T16:01:19.510Z,5.53
2023-04-18T16:03:23.685Z,5.27
2023-04-18T16:05:26.640Z,5.60
2023-04-18T16:07:29.344Z,5.70
2023-04-18T16:09:32.516Z,5.57
2023-04-18T16:11:35.268Z,5.47
2023-04-18T16:13:39.356Z,5.40
2023-04-18T16:15:42.789Z,5.87
2023-04-18T16:17:45.644Z,6.00
2023-04-18T16:19:48.426Z,5.87
2023-04-18T16:21:51.171Z,5.63
2023-04-18T16:23:53.849Z,6.07
2023-04-18T16:25:56.570Z,5.63
2023-04-18T16:27:59.289Z,5.73
2023-04-18T16:30:03.639Z,5.00
2023-04-18T16:32:09.058Z,5.20
2023-04-18T16:34:11.849Z,5.73
2023-04-18T16:36:14.588Z,5.27
2023-04-18T16:38:18.360Z,5.70
2023-04-18T16:40:22.284Z,5.17
2023-04-18T16:42:25.019Z,5.03
2023-04-18T16:44:27.790Z,14.73
2023-04-18T16:46:32.329Z,5.53
2023-04-18T16:48:37.730Z,4.90
2023-04-18T16:50:40.517Z,4.67
2023-04-18T16:52:43.251Z,4.80
2023-04-18T16:54:46.019Z,5.13
2023-04-18T16:56:49.958Z,5.20
2023-04-18T16:58:52.723Z,7.50
2023-04-18T17:00:55.451Z,8.10
2023-04-18T17:02:59.579Z,5.17
2023-04-18T17:05:02.487Z,7.37
2023-04-18T17:07:05.366Z,6.00
2023-04-18T17:09:08.741Z,8.30
2023-04-18T17:11:11.428Z,6.37
2023-04-18T17:13:14.246Z,7.27
2023-04-18T17:15:19.384Z,5.07
2023-04-18T17:17:23.635Z,5.63
2023-04-18T17:19:27.772Z,5.00
2023-04-18T17:21:31.745Z,4.70
2023-04-18T17:23:34.563Z,4.67
2023-04-18T17:25:37.632Z,4.63
2023-04-18T17:27:41.348Z,4.63
2023-04-18T17:29:44.136Z,4.90
2023-04-18T17:31:47.030Z,5.30
2023-04-18T17:33:50.573Z,4.77
2023-04-18T17:35:54.783Z,4.20
2023-04-18T17:37:57.977Z,4.93
2023-04-18T17:40:02.726Z,4.40
2023-04-18T17:42:05.620Z,4.53
2023-04-18T17:44:10.215Z,4.57
2023-04-18T17:46:13.488Z,5.20
2023-04-18T17:48:16.382Z,5.10
2023-04-18T17:50:19.441Z,4.82
2023-04-18T17:52:23.531Z,5.37
2023-04-18T17:54:29.397Z,5.30
2023-04-18T17:56:32.438Z,5.45
2023-04-18T17:58:35.609Z,5.40
2023-04-18T18:00:38.417Z,5.05
2023-04-18T18:02:42.313Z,5.60
2023-04-18T18:04:45.595Z,11.32
2023-04-18T18:06:54.896Z,14.15
2023-04-18T18:08:59.012Z,12.38
2023-04-18T18:11:02.508Z,10.98
2023-04-18T18:13:05.357Z,8.20
2023-04-18T18:15:09.568Z,5.93
2023-04-18T18:17:12.583Z,6.25
2023-04-18T18:19:16.476Z,5.90
2023-04-18T18:21:20.053Z,6.15
2023-04-18T18:23:22.957Z,5.90
2023-04-18T18:25:28.496Z,6.00
2023-04-18T18:27:31.347Z,6.40
2023-04-18T18:29:34.117Z,5.97
2023-04-18T18:31:36.974Z,6.57
2023-04-18T18:33:39.812Z,6.70
2023-04-18T18:35:43.611Z,6.25
2023-04-18T18:37:46.399Z,7.10
2023-04-18T18:39:49.185Z,7.18
2023-04-18T18:41:53.427Z,7.45
2023-04-18T18:43:56.232Z,7.35
2023-04-18T18:45:59.120Z,8.83
2023-04-18T18:48:03.856Z,9.75
2023-04-18T18:50:07.250Z,7.45
2023-04-18T18:52:10.351Z,6.80
2023-04-18T18:54:13.179Z,7.18
2023-04-18T18:56:16.348Z,7.72
2023-04-18T18:58:20.686Z,7.10
2023-04-18T19:00:24.832Z,6.82
2023-04-18T19:02:27.804Z,6.82
2023-04-18T19:04:30.962Z,6.97
2023-04-18T19:06:33.757Z,6.50
2023-04-18T19:08:36.605Z,6.57
2023-04-18T19:10:39.488Z,7.00
2023-04-18T19:12:42.287Z,6.90
2023-04-18T19:14:46.898Z,7.32
2023-04-18T19:16:49.751Z,7.13
2023-04-18T19:18:52.834Z,7.15
2023-04-18T19:20:55.565Z,6.57
2023-04-18T19:22:58.231Z,8.80
2023-04-18T19:25:00.939Z,8.15
2023-04-18T19:27:03.836Z,9.93
2023-04-18T19:29:07.431Z,6.90
2023-04-18T19:31:11.550Z,7.78
2023-04-18T19:33:14.543Z,6.78
2023-04-18T19:35:17.430Z,6.80
2023-04-18T19:37:20.230Z,6.80
2023-04-18T19:39:23.007Z,7.05
2023-04-18T19:41:26.159Z,7.07
2023-04-18T19:43:29.020Z,7.05
2023-04-18T19:45:31.873Z,6.75
2023-04-18T19:47:36.809Z,7.10
2023-04-18T19:49:40.688Z,9.43
2023-04-18T19:51:43.595Z,7.60
2023-04-18T19:53:46.849Z,16.35
2023-04-18T19:55:49.722Z,7.93
2023-04-18T19:57:55.889Z,6.78
2023-04-18T19:59:58.708Z,7.28
2023-04-18T20:02:04.203Z,7.50
2023-04-18T20:04:10.143Z,7.22
2023-04-18T20:06:13.117Z,7.65
2023-04-18T20:08:15.919Z,7.03
2023-04-18T20:10:22.997Z,6.82
2023-04-18T20:12:25.858Z,8.27
2023-04-18T20:14:28.782Z,7.43
2023-04-18T20:16:32.746Z,8.40
2023-04-18T20:18:37.715Z,7.55
2023-04-18T20:20:42.054Z,8.02
2023-04-18T20:22:46.881Z,7.28
2023-04-18T20:24:49.730Z,7.10
2023-04-18T20:26:52.501Z,6.95
2023-04-18T20:28:55.299Z,7.65
2023-04-18T20:30:58.136Z,7.22
2023-04-18T20:33:01.033Z,7.28
2023-04-18T20:35:04.414Z,7.22
2023-04-18T20:37:09.879Z,7.00
2023-04-18T20:39:13.438Z,7.57
2023-04-18T20:41:18.117Z,6.88
2023-04-18T20:43:21.418Z,7.55
2023-04-18T20:45:24.593Z,7.53
2023-04-18T20:47:27.728Z,8.18
2023-04-18T20:49:30.554Z,7.95
2023-04-18T20:51:34.356Z,7.20
2023-04-18T20:53:38.476Z,6.78
2023-04-18T20:55:41.267Z,7.72
2023-04-18T20:57:44.193Z,7.22
2023-04-18T20:59:47.580Z,8.10
2023-04-18T21:01:50.455Z,7.57
2023-04-18T21:03:53.460Z,7.78
2023-04-18T21:05:56.396Z,8.45
2023-04-18T21:07:59.723Z,10.27
2023-04-18T21:10:03.966Z,10.55
2023-04-18T21:12:07.173Z,7.95
2023-04-18T21:14:09.946Z,7.80
2023-04-18T21:16:12.711Z,8.20
2023-04-18T21:18:15.462Z,7.60
2023-04-18T21:20:18.328Z,7.75
2023-04-18T21:22:21.154Z,7.95
2023-04-18T21:24:23.991Z,8.10
2023-04-18T21:26:28.614Z,8.23
2023-04-18T21:28:31.342Z,8.55
2023-04-18T21:30:34.112Z,8.05
2023-04-18T21:32:36.908Z,8.48
2023-04-18T21:34:39.685Z,7.95
2023-04-18T21:36:42.480Z,8.35
2023-04-18T21:38:45.908Z,8.02
2023-04-18T21:40:48.632Z,7.88
2023-04-18T21:42:52.779Z,10.60
2023-04-18T21:44:55.835Z,8.48
2023-04-18T21:46:58.594Z,8.52
2023-04-18T21:49:01.334Z,8.15
2023-04-18T21:51:04.205Z,7.68
2023-04-18T21:53:07.033Z,8.10
2023-04-18T21:55:10.436Z,8.45
2023-04-18T21:57:13.187Z,8.30
2023-04-18T21:59:17.342Z,8.13
2023-04-18T22:01:20.293Z,8.55
2023-04-18T22:03:23.321Z,9.40
2023-04-18T22:05:26.287Z,9.50
2023-04-18T22:07:29.543Z,8.85
2023-04-18T22:09:33.824Z,9.00
2023-04-18T22:11:36.789Z,8.38
2023-04-18T22:13:39.580Z,8.25
2023-04-18T22:15:43.838Z,8.95
2023-04-18T22:17:47.787Z,8.70
2023-04-18T22:19:50.707Z,8.45
2023-04-18T22:21:53.535Z,8.75
2023-04-18T22:23:56.301Z,7.93
2023-04-18T22:25:59.197Z,8.25
2023-04-18T22:28:02.292Z,7.80
2023-04-18T22:30:05.939Z,8.07
2023-04-18T22:32:10.047Z,7.95
2023-04-18T22:34:12.988Z,8.40
2023-04-18T22:36:15.808Z,8.85
2023-04-18T22:38:18.609Z,8.45
2023-04-18T22:40:21.562Z,8.88
2023-04-18T22:42:26.588Z,8.18
2023-04-18T22:44:29.340Z,8.63
2023-04-18T22:46:32.835Z,8.40
2023-04-18T22:48:37.190Z,8.43
2023-04-18T22:50:42.523Z,8.10
2023-04-18T22:52:45.430Z,9.95
2023-04-18T22:54:48.259Z,8.48
2023-04-18T22:56:51.351Z,8.50
2023-04-18T22:58:54.186Z,8.77
2023-04-18T23:00:57.131Z,8.95
2023-04-18T23:03:00.500Z,8.00
2023-04-18T23:05:05.869Z,8.27
2023-04-18T23:07:09.058Z,8.48
2023-04-18T23:09:11.880Z,8.07
2023-04-18T23:11:15.778Z,9.25
2023-04-18T23:13:18.555Z,8.82
2023-04-18T23:15:22.820Z,8.70
2023-04-18T23:17:25.834Z,9.52
2023-04-18T23:19:28.647Z,8.27
2023-04-18T23:21:32.974Z,8.55
2023-04-18T23:23:35.854Z,8.48
2023-04-18T23:25:38.670Z,8.57
2023-04-18T23:27:41.545Z,8.70
2023-04-18T23:29:44.377Z,9.10
2023-04-18T23:31:47.255Z,8.48
2023-04-18T23:33:50.059Z,9.30
2023-04-18T23:35:52.815Z,9.05
2023-04-18T23:37:57.530Z,9.10
2023-04-18T23:40:01.046Z,8.90
2023-04-18T23:42:03.987Z,8.98
2023-04-18T23:44:06.994Z,8.70
2023-04-18T23:46:09.811Z,9.18
2023-04-18T23:48:13.483Z,8.85
2023-04-18T23:50:16.359Z,9.27
2023-04-18T23:52:19.164Z,8.65
2023-04-18T23:54:23.296Z,9.00
2023-04-18T23:56:26.316Z,9.20
2023-04-18T23:58:29.363Z,9.57
